Provideniya Bay Airport
UHMD : now visible

Airfield :











YOU CAN JOIN US ON...

 
LOGIN :

Register | Disclaimer

   EN    FR    IT 

 









Legend :    VFR   Marginal VFR   IFR   Intensive IFR   Very Intensive IFR
Visi :
Ceiling :
>= 8 km
>= 3000ft
5 to 8 km
1000 to 3000 ft
1500m to 5 km
500 to 1000 ft
800 to 1500m
200 to 500 ft
< 800m
< 200 ft
Symbols :   Thunderstorms  Fog  Heavy snow  Heavy precipitations  Wind > 20 kt






- Airport Elevation : 72 ft
- IATA code : PVS


UHMD - Provideniya Bay

CURRENT METAR :
  • 020530Z 16002MPS 9999 FEW006 BKN015 M03/M06 Q1014 RMK QBB200 MT OBSC QFE760/1013

EXPIRED METARs :
  • 020500Z 19002MPS 9999 FEW006 BKN015 M03/M05 Q1014 RMK QBB200 MT OBSC QFE760/1013
  • 020430Z 21001MPS 9999 FEW006 BKN015 M03/M05 Q1014 RMK QBB200 MT OBSC QFE759/1013
  • 020400Z 20002MPS 9999 FEW006 BKN015 M02/M04 Q1014 RMK QBB200 MT OBSC QFE759/1013
  • 020330Z 18002MPS 9999 SCT010 BKN018 M01/M03 Q1014 RMK QBB300 MT OBSC QFE759/1013
  • 020300Z 00000MPS 9999 SCT010 BKN018 M01/M03 Q1014 RMK QBB300 MT OBSC QFE759/1013

TAF TAF UHMD
Valid from the 02 at 06:00 until the 02 at 12:00 UTC


020452Z 0206/0212 21003G08MPS 6000 SCT007 BKN015
TEMPO 0206/0212 1000 BR VV003



MET'MAP, your aeronautical weather chart ! - Copyright ORBIFLY December 2007 - Disclaimer

ORBIFLY MET'MAP TEAM :

Programming & Development : Alexandra Zaïnal
Concept & original design : Baudouin d'Aumeries
Assistance for programming : Marc-Olivier Méhu
Technical & hardware support : Manuel Goepfert

Contact : metmap@orbifly.com




SOURCES & CREDITS :

   NOAA       Earth
Advisory